sensor_id;sensor_type;location;lat;lon;timestamp;temperature;humidity
72905;DHT22;61048;52.162;4.516;2023-06-22T00:02:01;24.30;55.10
72905;DHT22;61048;52.162;4.516;2023-06-22T00:04:29;24.30;55.10
72905;DHT22;61048;52.162;4.516;2023-06-22T00:06:56;24.30;55.20
72905;DHT22;61048;52.162;4.516;2023-06-22T00:09:23;24.30;55.20
72905;DHT22;61048;52.162;4.516;2023-06-22T00:11:50;24.30;55.20
72905;DHT22;61048;52.162;4.516;2023-06-22T00:14:16;24.30;55.30
72905;DHT22;61048;52.162;4.516;2023-06-22T00:16:43;24.30;55.30
72905;DHT22;61048;52.162;4.516;2023-06-22T00:19:14;24.30;55.30
72905;DHT22;61048;52.162;4.516;2023-06-22T00:21:42;24.30;55.30
72905;DHT22;61048;52.162;4.516;2023-06-22T00:24:12;24.30;55.40
72905;DHT22;61048;52.162;4.516;2023-06-22T00:26:39;24.30;55.30
72905;DHT22;61048;52.162;4.516;2023-06-22T00:29:06;24.30;55.40
72905;DHT22;61048;52.162;4.516;2023-06-22T00:31:33;24.30;55.30
72905;DHT22;61048;52.162;4.516;2023-06-22T00:34:00;24.30;55.30
72905;DHT22;61048;52.162;4.516;2023-06-22T00:36:26;24.30;55.30
72905;DHT22;61048;52.162;4.516;2023-06-22T00:38:55;24.30;55.20
72905;DHT22;61048;52.162;4.516;2023-06-22T00:41:23;24.30;55.30
72905;DHT22;61048;52.162;4.516;2023-06-22T00:43:50;24.30;55.30
72905;DHT22;61048;52.162;4.516;2023-06-22T00:46:17;24.30;55.40
72905;DHT22;61048;52.162;4.516;2023-06-22T00:48:44;24.30;55.30
72905;DHT22;61048;52.162;4.516;2023-06-22T00:51:11;24.30;55.30
72905;DHT22;61048;52.162;4.516;2023-06-22T00:53:38;24.30;55.30
72905;DHT22;61048;52.162;4.516;2023-06-22T00:56:07;24.30;55.30
72905;DHT22;61048;52.162;4.516;2023-06-22T00:58:38;24.30;55.30
72905;DHT22;61048;52.162;4.516;2023-06-22T01:01:07;24.30;55.30
72905;DHT22;61048;52.162;4.516;2023-06-22T01:03:33;24.30;55.20
72905;DHT22;61048;52.162;4.516;2023-06-22T01:06:07;24.30;55.20
72905;DHT22;61048;52.162;4.516;2023-06-22T01:08:42;24.30;55.30
72905;DHT22;61048;52.162;4.516;2023-06-22T01:11:20;24.30;55.20
72905;DHT22;61048;52.162;4.516;2023-06-22T01:13:54;24.30;55.10
72905;DHT22;61048;52.162;4.516;2023-06-22T01:16:26;24.30;55.30
72905;DHT22;61048;52.162;4.516;2023-06-22T01:18:57;24.30;55.30
72905;DHT22;61048;52.162;4.516;2023-06-22T01:21:27;24.30;55.30
72905;DHT22;61048;52.162;4.516;2023-06-22T01:24:02;24.30;55.30
72905;DHT22;61048;52.162;4.516;2023-06-22T01:26:39;24.30;55.20
72905;DHT22;61048;52.162;4.516;2023-06-22T01:29:11;24.30;55.30
72905;DHT22;61048;52.162;4.516;2023-06-22T01:31:39;24.30;55.20
72905;DHT22;61048;52.162;4.516;2023-06-22T01:34:08;24.30;55.30
72905;DHT22;61048;52.162;4.516;2023-06-22T01:36:36;24.30;55.20
72905;DHT22;61048;52.162;4.516;2023-06-22T01:39:05;24.30;55.20
72905;DHT22;61048;52.162;4.516;2023-06-22T01:41:35;24.30;55.30
72905;DHT22;61048;52.162;4.516;2023-06-22T01:44:03;24.30;55.20
72905;DHT22;61048;52.162;4.516;2023-06-22T01:46:33;24.30;55.20
72905;DHT22;61048;52.162;4.516;2023-06-22T01:49:01;24.30;55.40
72905;DHT22;61048;52.162;4.516;2023-06-22T01:51:28;24.30;55.30
72905;DHT22;61048;52.162;4.516;2023-06-22T01:53:55;24.20;55.20
72905;DHT22;61048;52.162;4.516;2023-06-22T01:56:22;24.30;55.40
72905;DHT22;61048;52.162;4.516;2023-06-22T01:58:54;24.20;55.40
72905;DHT22;61048;52.162;4.516;2023-06-22T02:01:26;24.20;55.40
72905;DHT22;61048;52.162;4.516;2023-06-22T02:04:02;24.20;55.40
72905;DHT22;61048;52.162;4.516;2023-06-22T02:06:34;24.20;55.30
72905;DHT22;61048;52.162;4.516;2023-06-22T02:09:07;24.20;55.50
72905;DHT22;61048;52.162;4.516;2023-06-22T02:11:37;24.20;55.40
72905;DHT22;61048;52.162;4.516;2023-06-22T02:14:04;24.20;55.60
72905;DHT22;61048;52.162;4.516;2023-06-22T02:16:32;24.20;55.50
72905;DHT22;61048;52.162;4.516;2023-06-22T02:19:02;24.20;55.60
72905;DHT22;61048;52.162;4.516;2023-06-22T02:21:30;24.20;55.50
72905;DHT22;61048;52.162;4.516;2023-06-22T02:23:57;24.20;55.60
72905;DHT22;61048;52.162;4.516;2023-06-22T02:26:25;24.20;55.60
72905;DHT22;61048;52.162;4.516;2023-06-22T02:28:52;24.20;55.60
72905;DHT22;61048;52.162;4.516;2023-06-22T02:31:19;24.20;55.70
72905;DHT22;61048;52.162;4.516;2023-06-22T02:33:46;24.20;55.70
72905;DHT22;61048;52.162;4.516;2023-06-22T02:36:15;24.20;55.80
72905;DHT22;61048;52.162;4.516;2023-06-22T02:38:43;24.20;55.60
72905;DHT22;61048;52.162;4.516;2023-06-22T02:41:14;24.20;55.70
72905;DHT22;61048;52.162;4.516;2023-06-22T02:43:44;24.10;55.60
72905;DHT22;61048;52.162;4.516;2023-06-22T02:46:12;24.20;55.70
72905;DHT22;61048;52.162;4.516;2023-06-22T02:48:39;24.10;55.70
72905;DHT22;61048;52.162;4.516;2023-06-22T02:51:06;24.10;55.70
72905;DHT22;61048;52.162;4.516;2023-06-22T02:53:34;24.10;55.70
72905;DHT22;61048;52.162;4.516;2023-06-22T02:56:02;24.10;55.70
72905;DHT22;61048;52.162;4.516;2023-06-22T02:58:31;24.10;55.90
72905;DHT22;61048;52.162;4.516;2023-06-22T03:00:58;24.10;55.90
72905;DHT22;61048;52.162;4.516;2023-06-22T03:03:30;24.10;56.00
72905;DHT22;61048;52.162;4.516;2023-06-22T03:05:57;24.10;55.80
72905;DHT22;61048;52.162;4.516;2023-06-22T03:08:26;24.10;55.90
72905;DHT22;61048;52.162;4.516;2023-06-22T03:10:55;24.10;55.80
72905;DHT22;61048;52.162;4.516;2023-06-22T03:13:22;24.10;55.80
72905;DHT22;61048;52.162;4.516;2023-06-22T03:15:49;24.10;55.80
72905;DHT22;61048;52.162;4.516;2023-06-22T03:18:16;24.10;55.80
72905;DHT22;61048;52.162;4.516;2023-06-22T03:20:43;24.10;55.90
72905;DHT22;61048;52.162;4.516;2023-06-22T03:23:10;24.10;55.90
72905;DHT22;61048;52.162;4.516;2023-06-22T03:25:37;24.10;55.80
72905;DHT22;61048;52.162;4.516;2023-06-22T03:28:05;24.10;55.80
72905;DHT22;61048;52.162;4.516;2023-06-22T03:30:32;24.10;55.90
72905;DHT22;61048;52.162;4.516;2023-06-22T03:32:59;24.10;55.80
72905;DHT22;61048;52.162;4.516;2023-06-22T03:35:26;24.10;55.90
72905;DHT22;61048;52.162;4.516;2023-06-22T03:37:53;24.10;55.90
72905;DHT22;61048;52.162;4.516;2023-06-22T03:40:20;24.10;55.90
72905;DHT22;61048;52.162;4.516;2023-06-22T03:42:47;24.00;56.00
72905;DHT22;61048;52.162;4.516;2023-06-22T03:45:16;24.00;56.00
72905;DHT22;61048;52.162;4.516;2023-06-22T03:47:43;24.00;56.10
72905;DHT22;61048;52.162;4.516;2023-06-22T03:50:10;24.00;56.10
72905;DHT22;61048;52.162;4.516;2023-06-22T03:52:37;24.00;56.10
72905;DHT22;61048;52.162;4.516;2023-06-22T03:55:05;24.00;56.10
72905;DHT22;61048;52.162;4.516;2023-06-22T03:57:32;24.00;56.00
72905;DHT22;61048;52.162;4.516;2023-06-22T03:59:59;24.00;56.20
72905;DHT22;61048;52.162;4.516;2023-06-22T04:02:28;24.00;56.30
72905;DHT22;61048;52.162;4.516;2023-06-22T04:04:54;24.00;56.10
72905;DHT22;61048;52.162;4.516;2023-06-22T04:07:21;24.00;56.30
72905;DHT22;61048;52.162;4.516;2023-06-22T04:09:48;24.00;56.30
72905;DHT22;61048;52.162;4.516;2023-06-22T04:12:15;24.00;56.40
72905;DHT22;61048;52.162;4.516;2023-06-22T04:14:42;24.00;56.30
72905;DHT22;61048;52.162;4.516;2023-06-22T04:17:09;24.00;56.40
72905;DHT22;61048;52.162;4.516;2023-06-22T04:19:41;24.00;56.50
72905;DHT22;61048;52.162;4.516;2023-06-22T04:22:08;24.00;56.40
72905;DHT22;61048;52.162;4.516;2023-06-22T04:24:35;24.00;56.50
72905;DHT22;61048;52.162;4.516;2023-06-22T04:27:03;24.00;56.40
72905;DHT22;61048;52.162;4.516;2023-06-22T04:29:30;24.00;56.30
72905;DHT22;61048;52.162;4.516;2023-06-22T04:31:57;24.00;56.40
72905;DHT22;61048;52.162;4.516;2023-06-22T04:34:28;24.00;56.50
72905;DHT22;61048;52.162;4.516;2023-06-22T04:36:57;24.00;56.50
72905;DHT22;61048;52.162;4.516;2023-06-22T04:39:24;24.10;56.50
72905;DHT22;61048;52.162;4.516;2023-06-22T04:41:52;24.10;56.50
72905;DHT22;61048;52.162;4.516;2023-06-22T04:44:20;24.10;56.70
72905;DHT22;61048;52.162;4.516;2023-06-22T04:46:50;24.10;56.60
72905;DHT22;61048;52.162;4.516;2023-06-22T04:49:20;24.10;56.60
72905;DHT22;61048;52.162;4.516;2023-06-22T04:51:48;24.20;56.50
72905;DHT22;61048;52.162;4.516;2023-06-22T04:54:18;24.20;56.70
72905;DHT22;61048;52.162;4.516;2023-06-22T04:56:45;24.20;56.80
72905;DHT22;61048;52.162;4.516;2023-06-22T04:59:14;24.20;56.90
72905;DHT22;61048;52.162;4.516;2023-06-22T05:01:44;24.20;56.90
72905;DHT22;61048;52.162;4.516;2023-06-22T05:04:11;24.30;56.80
72905;DHT22;61048;52.162;4.516;2023-06-22T05:06:38;24.30;56.90
72905;DHT22;61048;52.162;4.516;2023-06-22T05:09:05;24.30;56.80
72905;DHT22;61048;52.162;4.516;2023-06-22T05:11:34;24.40;56.80
72905;DHT22;61048;52.162;4.516;2023-06-22T05:14:00;24.40;56.80
72905;DHT22;61048;52.162;4.516;2023-06-22T05:16:27;24.40;56.70
72905;DHT22;61048;52.162;4.516;2023-06-22T05:18:55;24.40;56.70
72905;DHT22;61048;52.162;4.516;2023-06-22T05:21:23;24.50;56.70
72905;DHT22;61048;52.162;4.516;2023-06-22T05:23:50;24.50;56.80
72905;DHT22;61048;52.162;4.516;2023-06-22T05:26:18;24.50;56.90
72905;DHT22;61048;52.162;4.516;2023-06-22T05:28:47;24.60;56.80
72905;DHT22;61048;52.162;4.516;2023-06-22T05:31:15;24.60;56.80
72905;DHT22;61048;52.162;4.516;2023-06-22T05:33:43;24.60;56.80
72905;DHT22;61048;52.162;4.516;2023-06-22T05:36:10;24.70;56.80
72905;DHT22;61048;52.162;4.516;2023-06-22T05:38:38;24.70;56.90
72905;DHT22;61048;52.162;4.516;2023-06-22T05:41:05;24.70;57.00
72905;DHT22;61048;52.162;4.516;2023-06-22T05:43:32;24.70;56.90
72905;DHT22;61048;52.162;4.516;2023-06-22T05:46:02;24.70;56.80
